createdAt,value
2023-04-21T00:01:27.739Z,6.30
2023-04-21T00:04:00.366Z,6.20
2023-04-21T00:06:33.120Z,6.20
2023-04-21T00:09:05.472Z,6.20
2023-04-21T00:11:36.609Z,6.20
2023-04-21T00:14:07.565Z,6.20
2023-04-21T00:16:38.641Z,6.20
2023-04-21T00:19:09.610Z,6.20
2023-04-21T00:21:40.536Z,6.10
2023-04-21T00:24:11.714Z,6.10
2023-04-21T00:26:42.616Z,6.10
2023-04-21T00:29:13.457Z,6.10
2023-04-21T00:31:44.388Z,6.10
2023-04-21T00:34:15.371Z,6.00
2023-04-21T00:36:46.306Z,6.00
2023-04-21T00:39:17.285Z,6.00
2023-04-21T00:41:48.310Z,6.00
2023-04-21T00:44:19.184Z,6.00
2023-04-21T00:46:50.202Z,6.00
2023-04-21T00:49:22.766Z,6.10
2023-04-21T00:51:55.051Z,6.00
2023-04-21T00:54:27.412Z,6.00
2023-04-21T00:56:59.439Z,6.10
2023-04-21T00:59:31.476Z,6.10
2023-04-21T01:02:02.604Z,6.10
2023-04-21T01:04:38.888Z,6.10
2023-04-21T01:07:10.232Z,6.10
2023-04-21T01:09:41.243Z,6.00
2023-04-21T01:12:13.318Z,6.00
2023-04-21T01:14:44.305Z,6.00
2023-04-21T01:17:18.915Z,6.00
2023-04-21T01:19:51.835Z,6.00
2023-04-21T01:22:22.744Z,5.90
2023-04-21T01:24:53.756Z,5.90
2023-04-21T01:27:26.969Z,5.80
2023-04-21T01:29:58.234Z,5.80
2023-04-21T01:32:31.486Z,5.70
2023-04-21T01:35:02.703Z,5.70
2023-04-21T01:37:35.101Z,5.70
2023-04-21T01:40:09.330Z,5.70
2023-04-21T01:42:43.269Z,5.60
2023-04-21T01:45:14.547Z,5.60
2023-04-21T01:47:45.610Z,5.70
2023-04-21T01:50:16.653Z,5.60
2023-04-21T01:52:47.630Z,5.60
2023-04-21T01:55:18.716Z,5.60
2023-04-21T01:57:49.626Z,5.50
2023-04-21T02:00:20.533Z,5.50
2023-04-21T02:02:51.559Z,5.50
2023-04-21T02:05:22.604Z,5.60
2023-04-21T02:07:53.523Z,5.60
2023-04-21T02:10:24.526Z,5.60
2023-04-21T02:12:55.438Z,5.50
2023-04-21T02:15:26.484Z,5.40
2023-04-21T02:17:57.395Z,5.40
2023-04-21T02:20:28.353Z,5.40
2023-04-21T02:22:59.250Z,5.40
2023-04-21T02:25:30.792Z,5.30
2023-04-21T02:28:01.738Z,5.30
2023-04-21T02:30:33.985Z,5.20
2023-04-21T02:33:04.939Z,5.30
2023-04-21T02:35:35.837Z,5.30
2023-04-21T02:38:09.023Z,5.20
2023-04-21T02:40:41.019Z,5.10
2023-04-21T02:43:14.233Z,5.10
2023-04-21T02:45:46.103Z,5.20
2023-04-21T02:48:20.894Z,5.20
2023-04-21T02:50:53.282Z,5.10
2023-04-21T02:53:24.309Z,5.00
2023-04-21T02:55:55.742Z,5.00
2023-04-21T02:58:26.667Z,5.00
2023-04-21T03:00:57.668Z,5.00
2023-04-21T03:03:28.724Z,4.90
2023-04-21T03:06:02.051Z,4.80
2023-04-21T03:08:33.182Z,4.70
2023-04-21T03:11:04.155Z,4.70
2023-04-21T03:13:35.225Z,4.70
2023-04-21T03:16:06.781Z,4.60
2023-04-21T03:18:37.868Z,4.50
2023-04-21T03:21:08.837Z,4.50
2023-04-21T03:23:39.738Z,4.50
2023-04-21T03:26:11.830Z,4.50
2023-04-21T03:28:42.733Z,4.40
2023-04-21T03:31:13.639Z,4.40
2023-04-21T03:33:44.501Z,4.40
2023-04-21T03:36:15.425Z,4.30
2023-04-21T03:38:46.292Z,4.40
2023-04-21T03:41:17.318Z,4.40
2023-04-21T03:43:54.041Z,4.40
2023-04-21T03:46:25.620Z,4.40
2023-04-21T03:48:56.631Z,4.30
2023-04-21T03:51:27.521Z,4.40
2023-04-21T03:53:59.323Z,4.40
2023-04-21T03:56:30.428Z,4.40
2023-04-21T03:59:01.391Z,4.30
2023-04-21T04:01:33.864Z,4.40
2023-04-21T04:04:05.328Z,4.50
2023-04-21T04:06:36.401Z,4.50
2023-04-21T04:09:09.076Z,4.70
2023-04-21T04:11:40.053Z,4.70
2023-04-21T04:14:10.910Z,4.80
2023-04-21T04:16:42.035Z,4.80
2023-04-21T04:19:13.606Z,4.70
2023-04-21T04:21:44.789Z,4.70
2023-04-21T04:24:15.938Z,4.70
2023-04-21T04:26:47.036Z,4.60
2023-04-21T04:29:18.725Z,4.60
2023-04-21T04:31:52.765Z,4.50
2023-04-21T04:34:23.689Z,4.50
2023-04-21T04:36:54.611Z,4.50
2023-04-21T04:39:25.848Z,4.50
2023-04-21T04:41:56.786Z,4.50
2023-04-21T04:44:28.101Z,4.50
2023-04-21T04:46:59.135Z,4.50
2023-04-21T04:49:30.272Z,4.60
2023-04-21T04:52:02.002Z,4.60
2023-04-21T04:54:32.861Z,4.60
2023-04-21T04:57:03.904Z,4.60
2023-04-21T04:59:36.634Z,4.60
2023-04-21T05:02:08.330Z,4.70
2023-04-21T05:04:39.829Z,4.70
2023-04-21T05:07:10.815Z,4.70
2023-04-21T05:09:41.670Z,4.80
2023-04-21T05:12:12.550Z,4.80
2023-04-21T05:14:43.448Z,4.80
2023-04-21T05:17:14.329Z,4.80
2023-04-21T05:19:45.343Z,4.80
2023-04-21T05:22:16.215Z,4.90
2023-04-21T05:24:47.177Z,5.00
2023-04-21T05:27:18.059Z,5.10
2023-04-21T05:29:50.222Z,5.10
2023-04-21T05:32:21.382Z,5.00
2023-04-21T05:34:52.565Z,5.10
2023-04-21T05:37:23.453Z,5.10
2023-04-21T05:39:54.336Z,5.10
2023-04-21T05:42:25.318Z,5.20
2023-04-21T05:44:56.299Z,5.30
2023-04-21T05:47:27.205Z,5.30
2023-04-21T05:49:58.095Z,5.30
2023-04-21T05:52:28.993Z,5.30
2023-04-21T05:54:59.899Z,5.20
2023-04-21T05:57:30.778Z,5.30
2023-04-21T06:00:01.688Z,5.40
2023-04-21T06:02:32.749Z,5.50
2023-04-21T06:05:04.127Z,5.60
2023-04-21T06:07:37.353Z,5.70
2023-04-21T06:10:09.000Z,5.70
2023-04-21T06:12:40.188Z,5.80
2023-04-21T06:15:11.296Z,6.00
2023-04-21T06:17:42.187Z,6.00
2023-04-21T06:20:13.422Z,6.00
2023-04-21T06:22:44.304Z,6.00
2023-04-21T06:25:15.229Z,6.00
2023-04-21T06:27:46.294Z,6.20
2023-04-21T06:30:17.753Z,6.30
2023-04-21T06:32:49.028Z,6.40
2023-04-21T06:35:20.865Z,6.40
2023-04-21T06:37:52.053Z,6.60
2023-04-21T06:40:22.930Z,6.60
2023-04-21T06:42:53.744Z,6.70
2023-04-21T06:45:24.799Z,6.60
2023-04-21T06:47:55.662Z,6.80
2023-04-21T06:50:26.683Z,6.80
2023-04-21T06:52:57.596Z,7.00
2023-04-21T06:55:28.651Z,7.10
2023-04-21T06:57:59.580Z,7.20
2023-04-21T07:00:30.603Z,7.00
2023-04-21T07:03:01.578Z,7.20
2023-04-21T07:05:32.939Z,7.20
2023-04-21T07:08:03.886Z,7.20
2023-04-21T07:10:34.774Z,7.20
2023-04-21T07:13:08.789Z,7.20
2023-04-21T07:15:41.293Z,7.30
2023-04-21T07:18:12.291Z,7.40
2023-04-21T07:20:43.255Z,7.30
2023-04-21T07:23:20.409Z,7.40
2023-04-21T07:25:51.814Z,7.50
2023-04-21T07:28:22.807Z,7.60
2023-04-21T07:30:54.108Z,7.80
2023-04-21T07:33:25.132Z,7.80
2023-04-21T07:35:56.185Z,7.80
2023-04-21T07:38:27.089Z,7.80
2023-04-21T07:41:02.130Z,7.90
2023-04-21T07:43:33.012Z,7.80
2023-04-21T07:46:03.982Z,8.00
2023-04-21T07:48:34.952Z,8.20
2023-04-21T07:51:06.751Z,8.20
2023-04-21T07:53:37.614Z,8.20
2023-04-21T07:56:08.857Z,8.30
2023-04-21T07:58:39.701Z,8.40
2023-04-21T08:01:10.787Z,8.30
2023-04-21T08:03:41.901Z,8.40
2023-04-21T08:06:13.160Z,8.40
2023-04-21T08:08:44.191Z,8.50
2023-04-21T08:11:15.522Z,8.60
2023-04-21T08:13:46.553Z,8.60
2023-04-21T08:16:17.561Z,8.70
2023-04-21T08:18:48.517Z,8.80
2023-04-21T08:21:19.900Z,8.80
2023-04-21T08:23:51.466Z,8.90
2023-04-21T08:26:23.759Z,8.90
2023-04-21T08:28:54.816Z,8.90
2023-04-21T08:31:26.297Z,9.10
2023-04-21T08:34:01.974Z,9.20
2023-04-21T08:36:34.244Z,9.30
2023-04-21T08:39:05.537Z,9.40
2023-04-21T08:41:41.245Z,9.40
2023-04-21T08:44:12.174Z,9.60
2023-04-21T08:46:45.527Z,9.60
2023-04-21T08:49:21.355Z,9.70
2023-04-21T08:51:52.502Z,9.80
2023-04-21T08:54:23.388Z,9.80
2023-04-21T08:57:01.385Z,10.00
2023-04-21T08:59:39.117Z,10.10
2023-04-21T09:02:19.077Z,10.10
2023-04-21T09:04:52.265Z,10.20
2023-04-21T09:07:36.798Z,10.30
2023-04-21T09:10:08.459Z,10.40
2023-04-21T09:12:41.017Z,10.40
2023-04-21T09:15:12.673Z,10.60
2023-04-21T09:17:45.887Z,10.50
2023-04-21T09:20:20.884Z,10.60
2023-04-21T09:22:52.150Z,10.80
2023-04-21T09:25:23.638Z,10.90
2023-04-21T09:27:56.100Z,11.00
2023-04-21T09:30:27.222Z,11.10
2023-04-21T09:32:58.825Z,11.10
2023-04-21T09:35:33.214Z,11.20
2023-04-21T09:38:04.976Z,11.30
2023-04-21T09:40:36.042Z,11.50
2023-04-21T09:43:07.967Z,11.50
2023-04-21T09:45:40.647Z,11.50
2023-04-21T09:48:14.381Z,11.60
2023-04-21T09:53:25.522Z,11.90
2023-04-21T09:55:58.739Z,12.00
2023-04-21T09:58:36.242Z,12.10
2023-04-21T10:01:08.243Z,12.20
2023-04-21T10:03:40.877Z,12.40
2023-04-21T10:06:12.706Z,12.50
2023-04-21T10:08:44.411Z,12.50
2023-04-21T10:11:16.675Z,12.60
2023-04-21T10:13:47.644Z,12.50
2023-04-21T10:16:19.825Z,12.60
2023-04-21T10:18:52.746Z,12.60
2023-04-21T10:21:24.491Z,12.70
2023-04-21T10:23:59.167Z,12.80
2023-04-21T10:26:36.485Z,12.90
2023-04-21T10:29:09.569Z,13.00
2023-04-21T10:31:53.851Z,13.00
2023-04-21T10:34:37.934Z,13.00
2023-04-21T10:37:12.773Z,13.10
2023-04-21T10:39:45.637Z,13.20
2023-04-21T10:42:16.468Z,13.30
2023-04-21T10:44:59.826Z,13.30
2023-04-21T10:47:52.075Z,13.40
2023-04-21T10:50:28.176Z,13.40
2023-04-21T10:53:12.816Z,13.50
2023-04-21T10:55:50.064Z,13.60
2023-04-21T10:58:24.332Z,13.80
2023-04-21T11:00:56.199Z,13.90
2023-04-21T11:03:35.875Z,14.00
2023-04-21T11:06:18.532Z,14.20
2023-04-21T11:08:56.848Z,15.10
2023-04-21T11:11:27.775Z,16.10
2023-04-21T11:14:02.621Z,17.10
2023-04-21T11:16:34.572Z,17.70
2023-04-21T11:19:05.648Z,19.20
2023-04-21T11:21:36.627Z,19.10
2023-04-21T11:24:09.396Z,20.50
2023-04-21T11:26:42.449Z,20.20
2023-04-21T11:29:14.442Z,19.80
2023-04-21T11:31:50.330Z,20.00
2023-04-21T11:34:22.195Z,20.00
2023-04-21T11:36:53.759Z,19.70
2023-04-21T11:39:24.652Z,19.90
2023-04-21T11:41:55.842Z,19.10
2023-04-21T11:44:43.480Z,18.80
2023-04-21T11:47:21.165Z,19.30
2023-04-21T11:49:56.189Z,19.00
2023-04-21T11:52:32.880Z,18.90
2023-04-21T11:55:20.005Z,18.90
2023-04-21T11:57:54.046Z,18.80
2023-04-21T12:00:30.843Z,18.80
2023-04-21T12:03:01.826Z,18.90
2023-04-21T12:05:37.058Z,18.80
2023-04-21T12:08:15.616Z,18.90
2023-04-21T12:10:47.258Z,18.90
2023-04-21T12:13:25.146Z,18.70
2023-04-21T12:15:56.204Z,18.90
2023-04-21T12:18:32.456Z,19.00
2023-04-21T12:21:03.783Z,18.70
2023-04-21T12:23:34.641Z,18.60
2023-04-21T12:26:05.685Z,18.90
2023-04-21T12:28:37.409Z,18.80
2023-04-21T12:31:08.409Z,19.20
2023-04-21T12:33:40.034Z,19.30
2023-04-21T12:36:11.317Z,19.70
2023-04-21T12:38:43.203Z,19.80
2023-04-21T12:41:14.114Z,19.80
2023-04-21T12:43:45.087Z,20.00
2023-04-21T12:46:16.373Z,20.10
2023-04-21T12:48:48.803Z,20.30
2023-04-21T12:51:19.731Z,20.40
2023-04-21T12:53:50.678Z,20.20
2023-04-21T12:56:21.611Z,20.40
2023-04-21T12:58:52.879Z,20.50
2023-04-21T13:01:24.398Z,20.70
2023-04-21T13:03:55.642Z,20.80
2023-04-21T13:06:28.234Z,21.00
2023-04-21T13:08:59.488Z,21.20
2023-04-21T13:11:30.419Z,21.00
2023-04-21T13:14:04.014Z,21.00
2023-04-21T13:16:35.035Z,21.00
2023-04-21T13:19:06.313Z,21.10
2023-04-21T13:21:37.252Z,21.10
2023-04-21T13:24:09.045Z,21.20
2023-04-21T13:26:40.912Z,21.40
2023-04-21T13:29:11.898Z,21.40
2023-04-21T13:31:42.873Z,21.40
2023-04-21T13:34:13.877Z,21.50
2023-04-21T13:36:45.687Z,21.50
2023-04-21T13:39:16.714Z,21.60
2023-04-21T13:41:48.361Z,21.90
2023-04-21T13:44:21.486Z,22.30
2023-04-21T13:46:53.987Z,22.40
2023-04-21T13:49:25.231Z,22.40
2023-04-21T13:51:56.234Z,22.30
2023-04-21T13:54:27.828Z,22.10
2023-04-21T13:56:58.943Z,22.10
2023-04-21T13:59:30.232Z,22.10
2023-04-21T14:02:01.702Z,22.30
2023-04-21T14:04:32.934Z,22.20
2023-04-21T14:07:05.797Z,22.30
2023-04-21T14:09:36.716Z,22.40
2023-04-21T14:12:07.790Z,22.70
2023-04-21T14:14:39.428Z,22.50
2023-04-21T14:17:10.525Z,22.40
2023-04-21T14:19:41.428Z,22.90
2023-04-21T14:22:12.369Z,23.00
2023-04-21T14:24:43.384Z,23.00
2023-04-21T14:27:14.772Z,22.90
2023-04-21T14:29:45.997Z,22.80
2023-04-21T14:32:17.322Z,22.90
2023-04-21T14:34:48.736Z,23.20
2023-04-21T14:37:21.635Z,23.30
2023-04-21T14:39:52.606Z,23.50
2023-04-21T14:42:23.575Z,23.60
2023-04-21T14:44:54.558Z,23.70
2023-04-21T14:47:26.031Z,23.80
2023-04-21T14:49:57.188Z,23.90
2023-04-21T14:52:28.227Z,23.90
2023-04-21T14:55:00.382Z,24.00
2023-04-21T14:57:31.275Z,23.90
2023-04-21T15:00:02.314Z,23.90
2023-04-21T15:02:33.393Z,23.80
2023-04-21T15:05:05.697Z,24.00
2023-04-21T15:07:36.947Z,23.90
2023-04-21T15:10:09.064Z,23.90
2023-04-21T15:12:41.827Z,24.10
2023-04-21T15:15:12.742Z,24.10
2023-04-21T15:17:43.720Z,24.40
2023-04-21T15:20:14.645Z,24.20
2023-04-21T15:22:45.675Z,24.00
2023-04-21T15:25:16.695Z,24.10
2023-04-21T15:27:47.595Z,24.20
2023-04-21T15:30:18.614Z,24.20
2023-04-21T15:32:49.600Z,23.90
2023-04-21T15:35:20.761Z,23.60
2023-04-21T15:37:51.673Z,23.50
2023-04-21T15:40:22.681Z,23.40
2023-04-21T15:42:53.634Z,23.10
2023-04-21T15:45:24.617Z,23.00
2023-04-21T15:47:55.598Z,22.90
2023-04-21T15:50:26.900Z,23.10
2023-04-21T15:52:57.906Z,23.10
2023-04-21T15:55:29.307Z,23.40
2023-04-21T15:58:00.755Z,23.40
2023-04-21T16:00:31.740Z,23.60
2023-04-21T16:03:03.212Z,23.70
2023-04-21T16:05:34.446Z,23.70
2023-04-21T16:08:05.629Z,23.70
2023-04-21T16:10:36.749Z,23.70
2023-04-21T16:13:07.710Z,23.60
2023-04-21T16:15:38.692Z,23.50
2023-04-21T16:18:09.955Z,23.50
2023-04-21T16:20:41.696Z,23.40
2023-04-21T16:23:14.063Z,23.50
2023-04-21T16:25:45.149Z,23.30
2023-04-21T16:28:16.206Z,23.00
2023-04-21T16:30:48.366Z,22.80
2023-04-21T16:33:19.296Z,22.60
2023-04-21T16:35:52.198Z,22.50
2023-04-21T16:38:24.405Z,22.50
2023-04-21T16:40:55.444Z,22.40
2023-04-21T16:43:26.520Z,22.10
2023-04-21T16:45:57.591Z,22.00
2023-04-21T16:48:28.554Z,21.90
2023-04-21T16:50:59.547Z,22.00
2023-04-21T16:53:30.403Z,21.70
2023-04-21T16:56:01.415Z,21.60
2023-04-21T16:58:32.297Z,21.50
2023-04-21T17:01:04.990Z,21.30
2023-04-21T17:03:36.972Z,21.10
2023-04-21T17:06:10.698Z,21.00
2023-04-21T17:08:41.614Z,20.80
2023-04-21T17:11:12.593Z,20.70
2023-04-21T17:13:43.509Z,20.50
2023-04-21T17:16:14.450Z,20.40
2023-04-21T17:18:45.337Z,20.20
2023-04-21T17:21:16.269Z,20.00
2023-04-21T17:23:47.254Z,19.90
2023-04-21T17:26:18.196Z,19.80
2023-04-21T17:28:49.608Z,19.70
2023-04-21T17:31:20.484Z,19.60
2023-04-21T17:33:53.367Z,19.70
2023-04-21T17:36:29.419Z,19.70
2023-04-21T17:39:00.493Z,19.70
2023-04-21T17:41:31.375Z,19.60
2023-04-21T17:44:02.379Z,19.40
2023-04-21T17:46:33.336Z,19.30
2023-04-21T17:49:04.265Z,19.10
2023-04-21T17:51:36.116Z,18.90
2023-04-21T17:54:08.302Z,19.00
2023-04-21T17:56:40.818Z,18.90
2023-04-21T17:59:11.771Z,18.80
2023-04-21T18:01:42.703Z,18.80
2023-04-21T18:04:14.513Z,18.80
2023-04-21T18:06:45.911Z,18.60
2023-04-21T18:09:17.369Z,18.70
2023-04-21T18:11:48.374Z,18.80
2023-04-21T18:14:19.837Z,18.80
2023-04-21T18:16:50.745Z,18.60
2023-04-21T18:19:21.953Z,18.50
2023-04-21T18:21:52.930Z,18.40
2023-04-21T18:24:23.859Z,18.40
2023-04-21T18:26:54.754Z,18.30
2023-04-21T18:29:25.825Z,18.30
2023-04-21T18:31:56.866Z,18.30
2023-04-21T18:34:27.775Z,18.40
2023-04-21T18:36:58.679Z,18.50
2023-04-21T18:39:29.549Z,18.50
2023-04-21T18:42:01.008Z,18.40
2023-04-21T18:44:31.865Z,18.50
2023-04-21T18:47:02.816Z,18.40
2023-04-21T18:49:33.895Z,18.20
2023-04-21T18:52:05.188Z,18.00
2023-04-21T18:54:36.352Z,17.90
2023-04-21T18:57:08.373Z,17.70
2023-04-21T18:59:39.252Z,17.60
2023-04-21T19:02:12.876Z,17.40
2023-04-21T19:04:44.040Z,17.30
2023-04-21T19:07:15.783Z,17.20
2023-04-21T19:09:46.647Z,17.20
2023-04-21T19:12:17.658Z,17.10
2023-04-21T19:14:49.667Z,16.90
2023-04-21T19:17:20.856Z,16.90
2023-04-21T19:19:52.225Z,16.70
2023-04-21T19:22:23.436Z,16.60
2023-04-21T19:24:56.226Z,16.50
2023-04-21T19:27:27.609Z,16.40
2023-04-21T19:29:59.253Z,16.30
2023-04-21T19:32:30.785Z,16.40
2023-04-21T19:35:02.689Z,16.50
2023-04-21T19:37:35.428Z,16.30
2023-04-21T19:40:08.548Z,16.20
2023-04-21T19:42:41.674Z,16.10
2023-04-21T19:45:13.516Z,16.20
2023-04-21T19:47:44.581Z,16.10
2023-04-21T19:50:16.453Z,16.00
2023-04-21T19:52:48.100Z,16.00
2023-04-21T19:55:19.647Z,16.00
2023-04-21T19:57:51.258Z,16.00
2023-04-21T20:00:22.584Z,16.00
2023-04-21T20:02:53.789Z,16.00
2023-04-21T20:05:24.874Z,15.90
2023-04-21T20:07:56.421Z,16.00
2023-04-21T20:10:27.394Z,16.00
2023-04-21T20:12:58.501Z,16.10
2023-04-21T20:15:30.571Z,16.10
2023-04-21T20:18:01.709Z,16.30
2023-04-21T20:20:34.666Z,16.40
2023-04-21T20:23:05.814Z,16.40
2023-04-21T20:25:37.144Z,16.40
2023-04-21T20:28:08.090Z,16.40
2023-04-21T20:30:39.168Z,16.40
2023-04-21T20:33:10.814Z,16.30
2023-04-21T20:35:44.215Z,16.20
2023-04-21T20:38:16.185Z,16.10
2023-04-21T20:40:50.261Z,16.10
2023-04-21T20:43:21.398Z,15.90
2023-04-21T20:45:52.579Z,15.80
2023-04-21T20:48:23.466Z,15.80
2023-04-21T20:50:55.129Z,15.80
2023-04-21T20:53:26.229Z,15.80
2023-04-21T20:55:57.624Z,15.70
2023-04-21T20:58:28.562Z,15.60
2023-04-21T21:00:59.485Z,15.60
2023-04-21T21:03:30.967Z,15.50
2023-04-21T21:06:02.056Z,15.50
2023-04-21T21:08:34.339Z,15.50
2023-04-21T21:11:06.472Z,15.50
2023-04-21T21:13:37.406Z,15.40
2023-04-21T21:16:08.401Z,15.40
2023-04-21T21:18:39.448Z,15.40
2023-04-21T21:21:10.504Z,15.30
2023-04-21T21:23:42.369Z,15.20
2023-04-21T21:26:13.381Z,15.10
2023-04-21T21:28:44.318Z,15.10
2023-04-21T21:31:15.460Z,15.10
2023-04-21T21:33:46.350Z,15.10
2023-04-21T21:36:17.400Z,15.10
2023-04-21T21:38:48.302Z,15.10
2023-04-21T21:41:19.782Z,15.20
2023-04-21T21:43:50.871Z,15.20
2023-04-21T21:46:22.264Z,15.20
2023-04-21T21:48:54.153Z,15.10
2023-04-21T21:51:25.106Z,15.00
2023-04-21T21:53:56.053Z,15.10
2023-04-21T21:56:27.203Z,15.00
2023-04-21T21:58:58.559Z,14.90
2023-04-21T22:01:29.609Z,15.00
2023-04-21T22:04:00.775Z,15.00
2023-04-21T22:06:32.704Z,14.90
2023-04-21T22:09:04.950Z,14.90
2023-04-21T22:11:37.121Z,14.90
2023-04-21T22:14:21.994Z,14.90
2023-04-21T22:16:54.104Z,14.90
2023-04-21T22:19:25.548Z,15.10
2023-04-21T22:21:56.537Z,15.30
2023-04-21T22:24:27.480Z,15.20
2023-04-21T22:26:58.379Z,15.20
2023-04-21T22:29:29.281Z,15.20
2023-04-21T22:32:00.961Z,15.10
2023-04-21T22:34:31.896Z,15.10
2023-04-21T22:37:02.873Z,15.00
2023-04-21T22:39:33.799Z,15.00
2023-04-21T22:42:06.763Z,14.90
2023-04-21T22:44:37.729Z,14.70
2023-04-21T22:47:10.772Z,14.60
2023-04-21T22:49:41.945Z,14.50
2023-04-21T22:52:12.880Z,14.50
2023-04-21T22:54:43.765Z,14.50
2023-04-21T22:57:14.902Z,14.30
2023-04-21T22:59:45.833Z,14.30
2023-04-21T23:02:16.861Z,14.20
2023-04-21T23:04:47.849Z,14.10
2023-04-21T23:07:18.921Z,14.10
2023-04-21T23:09:50.086Z,14.20
2023-04-21T23:12:21.046Z,14.40
2023-04-21T23:14:51.944Z,14.40
2023-04-21T23:17:23.294Z,14.30
2023-04-21T23:19:55.316Z,14.30
2023-04-21T23:22:26.420Z,14.20
2023-04-21T23:24:57.456Z,14.20
2023-04-21T23:27:28.362Z,14.20
2023-04-21T23:29:59.419Z,14.20
2023-04-21T23:32:30.451Z,14.30
2023-04-21T23:35:01.355Z,14.30
2023-04-21T23:37:32.280Z,14.20
2023-04-21T23:40:06.118Z,14.10
2023-04-21T23:42:40.147Z,14.00
2023-04-21T23:45:11.326Z,13.90
2023-04-21T23:47:42.286Z,13.90
2023-04-21T23:50:13.771Z,13.80
2023-04-21T23:52:44.877Z,13.80
2023-04-21T23:55:16.323Z,13.80
2023-04-21T23:57:47.370Z,13.80
